createdAt,value
2017-11-06T00:00:05.606Z,28.2
2017-11-06T00:01:04.050Z,28.2
2017-11-06T00:02:05.497Z,28.2
2017-11-06T00:03:04.260Z,28.2
2017-11-06T00:04:05.627Z,28.2
2017-11-06T00:05:04.367Z,28.2
2017-11-06T00:06:06.041Z,28.2
2017-11-06T00:07:05.884Z,28.2
2017-11-06T00:08:05.779Z,28.2
2017-11-06T00:09:06.243Z,28.2
2017-11-06T00:10:04.650Z,28.2
2017-11-06T00:11:04.338Z,28.2
2017-11-06T00:12:06.052Z,28.2
2017-11-06T00:13:06.062Z,28.2
2017-11-06T00:14:06.083Z,28.2
2017-11-06T00:15:04.531Z,28.2
2017-11-06T00:16:04.527Z,28.2
2017-11-06T00:17:04.866Z,28.2
2017-11-06T00:18:06.554Z,28.2
2017-11-06T00:19:04.917Z,28.2
2017-11-06T00:20:04.993Z,28.2
2017-11-06T00:21:04.993Z,28.2
2017-11-06T00:22:04.981Z,28.1
2017-11-06T00:23:06.778Z,28.1
2017-11-06T00:24:04.939Z,28.2
2017-11-06T00:25:05.186Z,28.2
2017-11-06T00:26:04.940Z,28.2
2017-11-06T00:27:06.928Z,28.2
2017-11-06T00:28:05.169Z,28.2
2017-11-06T00:29:05.448Z,28.2
2017-11-06T00:30:06.858Z,28.2
2017-11-06T00:31:06.867Z,28.1
2017-11-06T00:32:06.982Z,28.1
2017-11-06T00:33:06.914Z,28.2
2017-11-06T00:34:07.358Z,28.2
2017-11-06T00:35:07.050Z,28.1
2017-11-06T00:36:07.434Z,28.2
2017-11-06T00:37:07.483Z,28.1
2017-11-06T00:38:07.208Z,28.1
2017-11-06T00:39:05.662Z,28.1
2017-11-06T00:40:05.961Z,28.2
2017-11-06T00:41:07.656Z,28.1
2017-11-06T00:42:07.744Z,28.1
2017-11-06T00:43:07.512Z,28.2
2017-11-06T00:44:07.554Z,28.2
2017-11-06T00:45:07.646Z,28.2
2017-11-06T00:46:07.670Z,28.2
2017-11-06T00:47:07.639Z,28.2
2017-11-06T00:48:06.134Z,28.1
2017-11-06T00:49:06.277Z,28.1
2017-11-06T00:50:07.905Z,28.1
2017-11-06T00:51:07.890Z,28.1
2017-11-06T00:52:08.352Z,28.1
2017-11-06T00:53:06.474Z,28.2
2017-11-06T00:54:06.778Z,28.2
2017-11-06T00:55:08.427Z,28.1
2017-11-06T00:56:06.591Z,28.1
2017-11-06T00:57:08.580Z,28.1
2017-11-06T00:58:06.618Z,28.1
2017-11-06T00:59:06.710Z,28.1
2017-11-06T01:00:08.741Z,28.1
2017-11-06T01:01:08.809Z,28.1
2017-11-06T01:02:08.555Z,28.1
2017-11-06T01:03:08.851Z,28.1
2017-11-06T01:04:08.555Z,28.1
2017-11-06T01:05:08.557Z,28.1
2017-11-06T01:06:08.611Z,28.1
2017-11-06T01:07:08.983Z,28.1
2017-11-06T01:08:08.697Z,28.1
2017-11-06T01:09:07.456Z,28.1
2017-11-06T01:10:08.819Z,28.1
2017-11-06T01:11:09.201Z,28.1
2017-11-06T01:12:09.273Z,28.1
2017-11-06T01:13:08.993Z,28.1
2017-11-06T01:14:08.934Z,28.1
2017-11-06T01:15:09.132Z,28.1
2017-11-06T01:16:09.451Z,28.1
2017-11-06T01:17:07.548Z,28.1
2017-11-06T01:18:09.556Z,28.1
2017-11-06T01:19:07.944Z,28.1
2017-11-06T01:20:08.009Z,28.1
2017-11-06T01:21:07.839Z,28.1
2017-11-06T01:22:07.840Z,28.1
2017-11-06T01:23:09.808Z,28.1
2017-11-06T01:24:07.905Z,28.1
2017-11-06T01:25:09.843Z,28.1
2017-11-06T01:26:09.601Z,28.1
2017-11-06T01:27:09.941Z,28.1
2017-11-06T01:28:10.034Z,28.1
2017-11-06T01:29:10.101Z,28.1
2017-11-06T01:30:09.806Z,28.1
2017-11-06T01:31:10.217Z,28.1
2017-11-06T01:32:08.259Z,28.1
2017-11-06T01:33:08.576Z,28.1
2017-11-06T01:34:08.605Z,28.1
2017-11-06T01:35:08.670Z,28.1
2017-11-06T01:36:08.736Z,28.1
2017-11-06T01:37:08.576Z,28.1
2017-11-06T01:38:10.511Z,28.1
2017-11-06T01:39:08.920Z,28.1
2017-11-06T01:40:08.991Z,28.1
2017-11-06T01:41:09.065Z,28.1
2017-11-06T01:42:10.828Z,28.1
2017-11-06T01:43:08.854Z,28
2017-11-06T01:44:11.022Z,28.1
2017-11-06T01:45:08.870Z,28.1
2017-11-06T01:46:09.253Z,28.1
2017-11-06T01:47:10.962Z,28.1
2017-11-06T01:48:09.060Z,28.1
2017-11-06T01:49:09.039Z,28.1
2017-11-06T01:50:09.440Z,28.1
2017-11-06T01:51:10.746Z,28.1
2017-11-06T01:52:09.469Z,28.1
2017-11-06T01:53:11.128Z,28.1
2017-11-06T01:54:09.288Z,28.1
2017-11-06T01:55:10.972Z,28.1
2017-11-06T01:56:09.695Z,28.1
2017-11-06T01:57:11.411Z,28.1
2017-11-06T01:58:11.181Z,28.1
2017-11-06T01:59:11.510Z,28.1
2017-11-06T02:00:10.842Z,28.1
2017-11-06T02:01:10.004Z,28.1
2017-11-06T02:02:11.760Z,28.1
2017-11-06T02:03:10.067Z,28.1
2017-11-06T02:04:10.188Z,28.1
2017-11-06T02:05:09.879Z,28.1
2017-11-06T02:06:10.212Z,28.1
2017-11-06T02:07:10.283Z,28.1
2017-11-06T02:08:10.243Z,28.1
2017-11-06T02:09:10.302Z,28.1
2017-11-06T02:10:11.705Z,28.1
2017-11-06T02:11:10.101Z,28.1
2017-11-06T02:12:10.182Z,28.1
2017-11-06T02:13:10.480Z,28
2017-11-06T02:14:12.099Z,28.1
2017-11-06T02:15:11.907Z,28.1
2017-11-06T02:16:10.593Z,28.1
2017-11-06T02:17:10.681Z,28.1
2017-11-06T02:18:10.480Z,28
2017-11-06T02:19:10.718Z,28.1
2017-11-06T02:20:10.787Z,28.1
2017-11-06T02:21:12.385Z,28.1
2017-11-06T02:22:12.471Z,28.1
2017-11-06T02:23:12.550Z,28.1
2017-11-06T02:24:10.958Z,28.1
2017-11-06T02:25:12.641Z,28.1
2017-11-06T02:26:10.799Z,28.1
2017-11-06T02:27:10.872Z,28.1
2017-11-06T02:28:11.237Z,28.1
2017-11-06T02:29:11.031Z,28.1
2017-11-06T02:30:13.085Z,28.1
2017-11-06T02:31:12.862Z,28.1
2017-11-06T02:32:12.871Z,28.1
2017-11-06T02:33:11.680Z,28.1
2017-11-06T02:34:13.366Z,28.1
2017-11-06T02:35:13.459Z,28.1
2017-11-06T02:36:11.801Z,28.1
2017-11-06T02:37:13.254Z,28.1
2017-11-06T02:38:11.929Z,28
2017-11-06T02:39:12.030Z,28.1
2017-11-06T02:40:13.376Z,28.1
2017-11-06T02:41:11.765Z,28.1
2017-11-06T02:42:12.152Z,28.1
2017-11-06T02:43:11.875Z,28
2017-11-06T02:44:11.867Z,28.1
2017-11-06T02:45:12.279Z,28.1
2017-11-06T02:46:12.385Z,28.1
2017-11-06T02:47:12.121Z,28.1
2017-11-06T02:48:14.121Z,28.1
2017-11-06T02:49:14.252Z,28.1
2017-11-06T02:50:13.914Z,28.1
2017-11-06T02:51:12.333Z,28.1
2017-11-06T02:52:13.911Z,28.1
2017-11-06T02:53:12.664Z,28.1
2017-11-06T02:54:14.374Z,28.1
2017-11-06T02:55:14.341Z,28.1
2017-11-06T02:56:14.109Z,28
2017-11-06T02:57:14.165Z,28
2017-11-06T02:58:14.187Z,28
2017-11-06T02:59:12.947Z,28
2017-11-06T03:00:13.053Z,28
2017-11-06T03:01:14.335Z,28
2017-11-06T03:02:14.693Z,28
2017-11-06T03:03:12.780Z,28.1
2017-11-06T03:04:14.483Z,28.1
2017-11-06T03:05:14.821Z,28.1
2017-11-06T03:06:14.546Z,28.1
2017-11-06T03:07:13.293Z,28.1
2017-11-06T03:08:15.012Z,28.1
2017-11-06T03:09:14.615Z,28.1
2017-11-06T03:10:13.389Z,28.1
2017-11-06T03:11:15.127Z,28.1
2017-11-06T03:12:15.156Z,28.1
2017-11-06T03:13:15.304Z,28
2017-11-06T03:14:15.322Z,28.1
2017-11-06T03:15:15.051Z,28.1
2017-11-06T03:16:13.714Z,28.1
2017-11-06T03:17:15.436Z,28
2017-11-06T03:18:13.631Z,28
2017-11-06T03:19:13.644Z,28
2017-11-06T03:20:15.728Z,28.1
2017-11-06T03:21:13.743Z,28.1
2017-11-06T03:22:15.387Z,28.1
2017-11-06T03:23:15.427Z,28.1
2017-11-06T03:24:15.410Z,28.1
2017-11-06T03:25:15.531Z,28.1
2017-11-06T03:26:14.212Z,28.1
2017-11-06T03:27:14.218Z,28
2017-11-06T03:28:15.919Z,28.1
2017-11-06T03:29:14.017Z,28.1
2017-11-06T03:30:15.694Z,28.1
2017-11-06T03:31:14.455Z,28.1
2017-11-06T03:32:14.231Z,28.1
2017-11-06T03:33:15.848Z,28.1
2017-11-06T03:34:14.488Z,28.1
2017-11-06T03:35:14.573Z,28.1
2017-11-06T03:36:15.957Z,28.1
2017-11-06T03:37:14.475Z,28.1
2017-11-06T03:38:14.453Z,28
2017-11-06T03:39:14.448Z,28
2017-11-06T03:40:16.095Z,28
2017-11-06T03:41:14.579Z,28
2017-11-06T03:42:14.581Z,28
2017-11-06T03:43:14.933Z,28
2017-11-06T03:44:16.557Z,28
2017-11-06T03:45:16.575Z,28
2017-11-06T03:46:14.688Z,28
2017-11-06T03:47:15.126Z,28.1
2017-11-06T03:48:16.731Z,28.1
2017-11-06T03:49:16.470Z,28.1
2017-11-06T03:50:16.865Z,28
2017-11-06T03:51:15.235Z,28
2017-11-06T03:52:16.938Z,28
2017-11-06T03:53:17.066Z,28
2017-11-06T03:54:15.194Z,28
2017-11-06T03:55:17.104Z,28
2017-11-06T03:56:15.532Z,28
2017-11-06T03:57:15.334Z,28
2017-11-06T03:58:15.710Z,28
2017-11-06T03:59:15.808Z,28
2017-11-06T04:00:17.186Z,28
2017-11-06T04:01:17.060Z,28.1
2017-11-06T04:02:17.227Z,28.1
2017-11-06T04:03:17.579Z,28
2017-11-06T04:04:17.286Z,28
2017-11-06T04:05:17.675Z,28
2017-11-06T04:06:17.705Z,28
2017-11-06T04:07:15.861Z,28
2017-11-06T04:08:15.926Z,28
2017-11-06T04:09:16.261Z,28
2017-11-06T04:10:17.978Z,28
2017-11-06T04:11:18.048Z,28
2017-11-06T04:12:16.189Z,28
2017-11-06T04:13:16.503Z,28
2017-11-06T04:14:17.921Z,28
2017-11-06T04:15:16.317Z,28
2017-11-06T04:16:18.230Z,28
2017-11-06T04:17:18.329Z,28
2017-11-06T04:18:18.013Z,28
2017-11-06T04:19:16.408Z,28
2017-11-06T04:20:18.112Z,28
2017-11-06T04:21:16.848Z,28
2017-11-06T04:22:16.875Z,28
2017-11-06T04:23:16.587Z,28
2017-11-06T04:24:18.228Z,28
2017-11-06T04:25:16.605Z,28
2017-11-06T04:26:17.024Z,28
2017-11-06T04:27:17.076Z,28
2017-11-06T04:28:17.018Z,28
2017-11-06T04:29:18.516Z,28
2017-11-06T04:30:16.910Z,28
2017-11-06T04:31:18.877Z,28
2017-11-06T04:32:17.248Z,28.1
2017-11-06T04:33:18.930Z,28.1
2017-11-06T04:34:18.652Z,28.1
2017-11-06T04:35:19.000Z,28
2017-11-06T04:36:17.502Z,28.1
2017-11-06T04:37:18.902Z,28.1
2017-11-06T04:38:18.945Z,28.1
2017-11-06T04:39:18.987Z,28
2017-11-06T04:40:19.018Z,28
2017-11-06T04:41:17.662Z,28
2017-11-06T04:42:19.086Z,28
2017-11-06T04:43:19.172Z,28
2017-11-06T04:44:19.560Z,28
2017-11-06T04:45:17.942Z,28
2017-11-06T04:46:17.770Z,28
2017-11-06T04:47:17.748Z,28.1
2017-11-06T04:48:19.434Z,28.1
2017-11-06T04:49:19.472Z,28.1
2017-11-06T04:50:19.520Z,28.1
2017-11-06T04:51:19.611Z,28.1
2017-11-06T04:52:20.080Z,28.1
2017-11-06T04:53:18.062Z,28.1
2017-11-06T04:54:19.695Z,28
2017-11-06T04:55:20.091Z,28.1
2017-11-06T04:56:18.216Z,28.1
2017-11-06T04:57:18.550Z,28.1
2017-11-06T04:58:19.945Z,28.1
2017-11-06T04:59:20.281Z,28.1
2017-11-06T05:00:20.372Z,28.1
2017-11-06T05:01:18.711Z,28.1
2017-11-06T05:02:20.111Z,28.1
2017-11-06T05:03:20.206Z,28.1
2017-11-06T05:04:20.180Z,28.1
2017-11-06T05:05:20.333Z,28.1
2017-11-06T05:06:20.726Z,28
2017-11-06T05:07:18.822Z,28.1
2017-11-06T05:08:19.102Z,28.1
2017-11-06T05:09:19.165Z,28.1
2017-11-06T05:10:18.963Z,28.1
2017-11-06T05:11:21.061Z,28.1
2017-11-06T05:12:20.660Z,28
2017-11-06T05:13:21.035Z,28.1
2017-11-06T05:14:19.123Z,28
2017-11-06T05:15:21.159Z,28.1
2017-11-06T05:16:21.217Z,28.1
2017-11-06T05:17:20.951Z,28.1
2017-11-06T05:18:20.977Z,28.1
2017-11-06T05:19:21.030Z,28
2017-11-06T05:20:21.367Z,28
2017-11-06T05:21:21.456Z,28
2017-11-06T05:22:21.688Z,28
2017-11-06T05:23:21.442Z,28
2017-11-06T05:24:21.941Z,28
2017-11-06T05:25:21.822Z,28
2017-11-06T05:26:21.883Z,28
2017-11-06T05:27:19.831Z,28
2017-11-06T05:28:20.116Z,28
2017-11-06T05:29:20.156Z,28.1
2017-11-06T05:30:21.878Z,28
2017-11-06T05:31:20.011Z,28
2017-11-06T05:32:21.711Z,28
2017-11-06T05:33:21.819Z,27.9
2017-11-06T05:34:20.518Z,28
2017-11-06T05:35:21.918Z,27.9
2017-11-06T05:36:20.339Z,27.9
2017-11-06T05:37:22.049Z,27.9
2017-11-06T05:38:20.405Z,27.8
2017-11-06T05:39:22.053Z,27.8
2017-11-06T05:40:20.550Z,27.7
2017-11-06T05:41:20.835Z,27.6
2017-11-06T05:42:22.529Z,27.6
2017-11-06T05:43:22.243Z,27.6
2017-11-06T05:44:20.625Z,27.5
2017-11-06T05:45:20.984Z,27.5
2017-11-06T05:46:21.063Z,27.5
2017-11-06T05:47:20.814Z,27.5
2017-11-06T05:48:20.874Z,27.5
2017-11-06T05:49:20.844Z,27.5
2017-11-06T05:50:22.504Z,27.4
2017-11-06T05:51:21.256Z,27.4
2017-11-06T05:52:21.121Z,27.4
2017-11-06T05:53:21.161Z,27.4
2017-11-06T05:54:21.208Z,27.4
2017-11-06T05:55:21.589Z,27.4
2017-11-06T05:56:21.343Z,27.5
2017-11-06T05:57:21.437Z,27.5
2017-11-06T05:58:23.123Z,27.5
2017-11-06T05:59:21.548Z,27.5
2017-11-06T06:00:21.892Z,27.5
2017-11-06T06:01:23.531Z,27.5
2017-11-06T06:02:23.300Z,27.5
2017-11-06T06:03:23.625Z,27.5
2017-11-06T06:04:21.726Z,27.4
2017-11-06T06:05:23.705Z,27.4
2017-11-06T06:06:22.091Z,27.4
2017-11-06T06:07:23.751Z,27.4
2017-11-06T06:08:21.861Z,27.5
2017-11-06T06:09:22.191Z,27.5
2017-11-06T06:10:23.600Z,27.6
2017-11-06T06:11:22.313Z,27.7
2017-11-06T06:12:22.097Z,27.8
2017-11-06T06:13:22.103Z,27.9
2017-11-06T06:14:22.181Z,27.9
2017-11-06T06:15:23.879Z,28
2017-11-06T06:16:23.896Z,28
2017-11-06T06:17:23.990Z,28
2017-11-06T06:18:24.058Z,28.1
2017-11-06T06:19:24.409Z,28.1
2017-11-06T06:20:22.553Z,28.1
2017-11-06T06:21:22.626Z,28.2
2017-11-06T06:22:24.370Z,28.2
2017-11-06T06:23:24.320Z,28.2
2017-11-06T06:24:24.418Z,28.3
2017-11-06T06:25:24.741Z,28.3
2017-11-06T06:26:27.923Z,28.2
2017-11-06T06:27:24.937Z,27.8
2017-11-06T06:28:23.246Z,27.3
2017-11-06T06:29:26.433Z,26.8
2017-11-06T06:30:25.988Z,26.2
2017-11-06T06:31:23.425Z,25.7
2017-11-06T06:32:25.194Z,25.3
2017-11-06T06:33:25.231Z,24.9
2017-11-06T06:34:25.268Z,24.7
2017-11-06T06:35:25.420Z,24.5
2017-11-06T06:36:23.413Z,24.2
2017-11-06T06:37:25.633Z,24
2017-11-06T06:38:25.083Z,23.8
2017-11-06T06:39:25.436Z,23.6
2017-11-06T06:40:23.513Z,23.3
2017-11-06T06:41:23.842Z,23.1
2017-11-06T06:42:25.620Z,22.9
2017-11-06T06:43:24.454Z,22.8
2017-11-06T06:44:25.311Z,22.6
2017-11-06T06:45:24.073Z,22.5
2017-11-06T06:46:23.761Z,22.5
2017-11-06T06:47:23.824Z,22.3
2017-11-06T06:48:24.222Z,22.2
2017-11-06T06:49:24.365Z,22.2
2017-11-06T06:50:25.693Z,22.2
2017-11-06T06:51:24.317Z,22.2
2017-11-06T06:52:25.708Z,22.2
2017-11-06T06:53:26.692Z,22.1
2017-11-06T06:54:24.189Z,22.1
2017-11-06T06:55:24.216Z,22
2017-11-06T06:56:24.267Z,21.9
2017-11-06T06:57:24.419Z,21.9
2017-11-06T06:58:26.043Z,21.9
2017-11-06T06:59:26.496Z,22
2017-11-06T07:00:24.994Z,22.1
2017-11-06T07:01:26.222Z,22.2
2017-11-06T07:02:24.596Z,22.3
2017-11-06T07:03:26.662Z,22.4
2017-11-06T07:04:24.790Z,22.4
2017-11-06T07:05:26.440Z,22.5
2017-11-06T07:06:26.842Z,22.5
2017-11-06T07:07:26.853Z,22.4
2017-11-06T07:08:26.533Z,22.3
2017-11-06T07:09:25.008Z,22.2
2017-11-06T07:10:26.969Z,22.2
2017-11-06T07:11:25.072Z,22.2
2017-11-06T07:12:25.332Z,22.3
2017-11-06T07:13:28.093Z,22.3
2017-11-06T07:14:29.953Z,22.3
2017-11-06T07:15:25.162Z,22.4
2017-11-06T07:16:25.227Z,22.4
2017-11-06T07:17:27.020Z,22.4
2017-11-06T07:18:27.279Z,22.4
2017-11-06T07:19:25.487Z,22.4
2017-11-06T07:20:25.847Z,22.4
2017-11-06T07:21:27.478Z,22.4
2017-11-06T07:22:27.277Z,22.4
2017-11-06T07:23:27.371Z,22.5
2017-11-06T07:24:27.426Z,22.5
2017-11-06T07:25:27.719Z,22.4
2017-11-06T07:26:25.849Z,22.5
2017-11-06T07:27:25.949Z,22.5
2017-11-06T07:28:27.588Z,22.5
2017-11-06T07:29:26.290Z,22.5
2017-11-06T07:30:26.075Z,22.5
2017-11-06T07:31:28.121Z,22.5
2017-11-06T07:32:27.882Z,22.5
2017-11-06T07:33:26.473Z,22.6
2017-11-06T07:34:28.262Z,22.7
2017-11-06T07:35:26.353Z,22.7
2017-11-06T07:36:28.026Z,22.8
2017-11-06T07:37:26.447Z,22.8
2017-11-06T07:38:26.737Z,22.7
2017-11-06T07:39:26.780Z,22.7
2017-11-06T07:40:28.516Z,22.7
2017-11-06T07:41:28.596Z,22.7
2017-11-06T07:42:28.664Z,22.7
2017-11-06T07:43:26.690Z,22.7
2017-11-06T07:44:27.079Z,22.7
2017-11-06T07:45:28.375Z,22.6
2017-11-06T07:46:27.119Z,22.6
2017-11-06T07:47:28.532Z,22.5
2017-11-06T07:48:28.104Z,22.6
2017-11-06T07:49:28.658Z,22.6
2017-11-06T07:50:28.668Z,22.6
2017-11-06T07:51:27.191Z,22.6
2017-11-06T07:52:28.813Z,22.6
2017-11-06T07:53:28.062Z,22.7
2017-11-06T07:54:27.614Z,22.8
2017-11-06T07:55:28.973Z,22.8
2017-11-06T07:56:29.069Z,22.8
2017-11-06T07:57:28.035Z,22.7
2017-11-06T07:58:29.535Z,22.7
2017-11-06T07:59:27.672Z,22.7
2017-11-06T08:00:27.694Z,22.7
2017-11-06T08:01:29.592Z,22.7
2017-11-06T08:02:27.663Z,22.7
2017-11-06T08:03:29.729Z,22.8
2017-11-06T08:04:29.430Z,22.8
2017-11-06T08:05:29.899Z,22.8
2017-11-06T08:06:28.549Z,22.9
2017-11-06T08:07:28.336Z,22.9
2017-11-06T08:08:30.095Z,22.8
2017-11-06T08:09:28.354Z,22.8
2017-11-06T08:10:29.827Z,22.8
2017-11-06T08:11:28.191Z,22.8
2017-11-06T08:12:28.720Z,22.8
2017-11-06T08:13:30.026Z,22.8
2017-11-06T08:14:29.992Z,22.8
2017-11-06T08:15:28.404Z,22.8
2017-11-06T08:16:34.195Z,22.8
2017-11-06T08:17:28.489Z,22.8
2017-11-06T08:18:30.399Z,22.8
2017-11-06T08:19:30.417Z,22.8
2017-11-06T08:20:29.588Z,22.8
2017-11-06T08:21:28.587Z,22.8
2017-11-06T08:22:28.922Z,22.7
2017-11-06T08:23:28.643Z,22.8
2017-11-06T08:24:29.222Z,22.9
2017-11-06T08:25:29.195Z,23
2017-11-06T08:26:30.794Z,23
2017-11-06T08:27:29.337Z,23.1
2017-11-06T08:28:28.930Z,23.1
2017-11-06T08:29:30.600Z,23.1
2017-11-06T08:30:30.700Z,23.2
2017-11-06T08:31:29.373Z,23.2
2017-11-06T08:32:29.489Z,23.2
2017-11-06T08:33:30.799Z,23.2
2017-11-06T08:34:30.937Z,23.3
2017-11-06T08:35:31.299Z,23.3
2017-11-06T08:36:29.826Z,23.3
2017-11-06T08:37:29.828Z,23.3
2017-11-06T08:38:29.674Z,23.4
2017-11-06T08:39:31.929Z,23.3
2017-11-06T08:40:29.984Z,23.3
2017-11-06T08:41:31.686Z,23.4
2017-11-06T08:42:29.704Z,23.5
2017-11-06T08:43:31.330Z,23.5
2017-11-06T08:44:30.161Z,23.5
2017-11-06T08:45:30.020Z,23.5
2017-11-06T08:46:30.205Z,23.5
2017-11-06T08:47:31.441Z,23.5
2017-11-06T08:48:29.942Z,23.5
2017-11-06T08:49:34.025Z,23.6
2017-11-06T08:50:30.222Z,23.6
2017-11-06T08:51:30.034Z,23.6
2017-11-06T08:52:30.010Z,23.7
2017-11-06T08:53:30.379Z,23.8
2017-11-06T08:54:31.749Z,23.9
2017-11-06T08:55:30.242Z,23.9
2017-11-06T08:56:31.904Z,24
2017-11-06T08:57:30.870Z,24.1
2017-11-06T08:58:30.616Z,24.1
2017-11-06T08:59:30.700Z,24.3
2017-11-06T09:00:32.375Z,24.3
2017-11-06T09:01:32.569Z,24.4
2017-11-06T09:02:31.927Z,24.5
2017-11-06T09:03:32.207Z,24.6
2017-11-06T09:04:32.479Z,24.7
2017-11-06T09:05:30.561Z,24.8
2017-11-06T09:06:33.372Z,24.9
2017-11-06T09:07:32.343Z,24.9
2017-11-06T09:08:32.432Z,25
2017-11-06T09:09:31.141Z,25
2017-11-06T09:10:32.540Z,25
2017-11-06T09:11:32.732Z,25.1
2017-11-06T09:12:31.521Z,25.2
2017-11-06T09:13:33.633Z,25.3
2017-11-06T09:14:33.199Z,25.4
2017-11-06T09:15:31.692Z,25.4
2017-11-06T09:16:32.220Z,25.4
2017-11-06T09:17:31.185Z,25.4
2017-11-06T09:18:33.398Z,25.3
2017-11-06T09:19:33.423Z,25.3
2017-11-06T09:20:33.476Z,25.3
2017-11-06T09:21:33.773Z,25.3
2017-11-06T09:22:33.331Z,25.3
2017-11-06T09:23:32.028Z,25.3
2017-11-06T09:24:32.487Z,25.2
2017-11-06T09:25:32.319Z,25.2
2017-11-06T09:26:33.453Z,25.2
2017-11-06T09:27:31.949Z,25.3
2017-11-06T09:28:33.707Z,25.3
2017-11-06T09:29:32.246Z,25.3
2017-11-06T09:30:33.608Z,25.3
2017-11-06T09:31:32.145Z,25.3
2017-11-06T09:32:32.648Z,25.3
2017-11-06T09:33:33.748Z,25.3
2017-11-06T09:34:32.548Z,25.3
2017-11-06T09:35:34.033Z,25.2
2017-11-06T09:36:32.301Z,25.2
2017-11-06T09:37:33.934Z,25.1
2017-11-06T09:38:33.981Z,25.1
2017-11-06T09:39:33.063Z,25.1
2017-11-06T09:40:34.358Z,25.1
2017-11-06T09:41:34.109Z,25.1
2017-11-06T09:42:34.513Z,25.2
2017-11-06T09:43:32.476Z,25.2
2017-11-06T09:44:32.842Z,25.1
2017-11-06T09:45:34.415Z,25
2017-11-06T09:46:32.880Z,24.9
2017-11-06T09:47:34.594Z,24.8
2017-11-06T09:48:34.293Z,24.7
2017-11-06T09:49:34.389Z,24.7
2017-11-06T09:50:34.913Z,24.7
2017-11-06T09:51:34.927Z,24.7
2017-11-06T09:52:35.000Z,24.7
2017-11-06T09:53:34.609Z,24.7
2017-11-06T09:54:34.830Z,24.6
2017-11-06T09:55:33.497Z,24.6
2017-11-06T09:56:33.053Z,24.6
2017-11-06T09:57:33.274Z,24.6
2017-11-06T09:58:34.969Z,24.6
2017-11-06T09:59:34.828Z,24.6
2017-11-06T10:00:34.888Z,24.6
2017-11-06T10:01:35.536Z,24.6
2017-11-06T10:02:35.067Z,24.7
2017-11-06T10:03:33.936Z,24.7
2017-11-06T10:04:33.837Z,24.9
2017-11-06T10:05:35.494Z,25.1
2017-11-06T10:06:35.205Z,25.2
2017-11-06T10:07:33.909Z,25.2
2017-11-06T10:08:36.903Z,25.2
2017-11-06T10:09:35.856Z,25.2
2017-11-06T10:10:35.703Z,25.2
2017-11-06T10:11:35.423Z,25.4
2017-11-06T10:12:33.930Z,25.5
2017-11-06T10:13:35.617Z,25.6
2017-11-06T10:14:35.958Z,25.7
2017-11-06T10:15:34.110Z,25.8
2017-11-06T10:16:34.382Z,25.9
2017-11-06T10:17:36.036Z,26
2017-11-06T10:18:35.822Z,26.1
2017-11-06T10:19:34.482Z,26.3
2017-11-06T10:20:34.429Z,26.5
2017-11-06T10:21:34.658Z,26.5
2017-11-06T10:22:35.181Z,26.6
2017-11-06T10:23:36.320Z,26.5
2017-11-06T10:24:35.091Z,26.5
2017-11-06T10:25:35.414Z,26.5
2017-11-06T10:26:36.730Z,26.5
2017-11-06T10:27:36.789Z,26.4
2017-11-06T10:28:35.353Z,26.3
2017-11-06T10:29:35.393Z,26.3
2017-11-06T10:30:35.025Z,26.3
2017-11-06T10:31:37.253Z,26.3
2017-11-06T10:32:37.123Z,26.3
2017-11-06T10:33:35.200Z,26.3
2017-11-06T10:34:37.047Z,26.4
2017-11-06T10:35:35.164Z,26.4
2017-11-06T10:36:35.295Z,26.3
2017-11-06T10:37:37.357Z,26.3
2017-11-06T10:38:37.346Z,26.2
2017-11-06T10:39:35.533Z,26.2
2017-11-06T10:40:37.359Z,26.3
2017-11-06T10:41:37.164Z,26.4
2017-11-06T10:42:37.521Z,26.4
2017-11-06T10:43:35.922Z,26.4
2017-11-06T10:44:37.485Z,26.4
2017-11-06T10:45:35.642Z,26.4
2017-11-06T10:46:37.309Z,26.4
2017-11-06T10:47:37.615Z,26.5
2017-11-06T10:48:37.460Z,26.6
2017-11-06T10:49:37.766Z,26.7
2017-11-06T10:50:36.117Z,26.7
2017-11-06T10:51:37.731Z,26.8
2017-11-06T10:52:37.944Z,27
2017-11-06T10:53:38.215Z,27.2
2017-11-06T10:54:37.945Z,27.5
2017-11-06T10:55:38.424Z,27.6
2017-11-06T10:56:37.934Z,27.8
2017-11-06T10:57:37.781Z,27.8
2017-11-06T10:58:36.581Z,27.7
2017-11-06T10:59:36.275Z,27.7
2017-11-06T11:00:36.723Z,27.7
2017-11-06T11:01:39.008Z,27.8
2017-11-06T11:02:36.753Z,27.9
2017-11-06T11:03:36.393Z,28
2017-11-06T11:04:38.384Z,28
2017-11-06T11:05:38.682Z,28.2
2017-11-06T11:06:38.159Z,28.3
2017-11-06T11:07:38.276Z,28.4
2017-11-06T11:08:36.557Z,28.4
2017-11-06T11:09:38.200Z,28.4
2017-11-06T11:10:38.553Z,28.3
2017-11-06T11:11:38.695Z,28.2
2017-11-06T11:12:37.104Z,28.1
2017-11-06T11:13:36.988Z,27.9
2017-11-06T11:14:38.832Z,27.7
2017-11-06T11:15:37.034Z,27.6
2017-11-06T11:16:38.655Z,27.4
2017-11-06T11:17:38.884Z,27.2
2017-11-06T11:18:37.604Z,27.1
2017-11-06T11:19:38.876Z,27.1
2017-11-06T11:20:39.269Z,27.1
2017-11-06T11:21:37.255Z,27
2017-11-06T11:22:38.956Z,26.8
2017-11-06T11:23:39.022Z,26.7
2017-11-06T11:24:39.038Z,26.6
2017-11-06T11:25:39.343Z,26.5
2017-11-06T11:26:38.291Z,26.5
2017-11-06T11:27:37.480Z,26.6
2017-11-06T11:28:39.376Z,26.7
2017-11-06T11:29:37.940Z,26.9
2017-11-06T11:30:38.068Z,27
2017-11-06T11:31:37.598Z,27
2017-11-06T11:32:38.690Z,27
2017-11-06T11:33:43.301Z,26.9
2017-11-06T11:34:39.814Z,26.8
2017-11-06T11:35:39.810Z,26.7
2017-11-06T11:36:37.814Z,26.7
2017-11-06T11:37:37.862Z,26.7
2017-11-06T11:38:41.153Z,26.6
2017-11-06T11:39:39.814Z,26.6
2017-11-06T11:40:39.708Z,26.6
2017-11-06T11:41:40.092Z,26.6
2017-11-06T11:42:38.315Z,26.8
2017-11-06T11:43:39.718Z,27
2017-11-06T11:44:39.849Z,27.1
2017-11-06T11:45:38.280Z,27.1
2017-11-06T11:46:38.353Z,27.1
2017-11-06T11:47:39.707Z,27.1
2017-11-06T11:48:40.419Z,27.1
2017-11-06T11:49:40.563Z,27.1
2017-11-06T11:50:40.212Z,27.1
2017-11-06T11:51:38.544Z,27.1
2017-11-06T11:52:40.716Z,27
2017-11-06T11:53:40.404Z,26.9
2017-11-06T11:54:39.694Z,26.8
2017-11-06T11:55:38.882Z,26.7
2017-11-06T11:56:39.036Z,26.6
2017-11-06T11:57:40.587Z,26.4
2017-11-06T11:58:40.621Z,26.3
2017-11-06T11:59:39.061Z,26.3
2017-11-06T12:00:39.430Z,26.2
2017-11-06T12:01:39.525Z,26.2
2017-11-06T12:02:41.141Z,26.3
2017-11-06T12:03:39.663Z,26.4
2017-11-06T12:04:41.355Z,26.4
2017-11-06T12:05:39.429Z,26.4
2017-11-06T12:06:39.507Z,26.4
2017-11-06T12:07:39.752Z,26.3
2017-11-06T12:08:39.885Z,26.3
2017-11-06T12:09:41.151Z,26.3
2017-11-06T12:10:41.168Z,26.2
2017-11-06T12:11:41.289Z,26.2
2017-11-06T12:12:41.701Z,26.1
2017-11-06T12:13:41.604Z,26.1
2017-11-06T12:14:42.102Z,26.1
2017-11-06T12:15:39.878Z,26.1
2017-11-06T12:16:41.705Z,26.1
2017-11-06T12:17:40.393Z,26.3
2017-11-06T12:18:41.716Z,26.4
2017-11-06T12:19:40.047Z,26.6
2017-11-06T12:20:40.311Z,26.7
2017-11-06T12:21:40.195Z,26.7
2017-11-06T12:22:40.361Z,26.6
2017-11-06T12:23:41.795Z,26.5
2017-11-06T12:24:40.323Z,26.5
2017-11-06T12:25:42.286Z,26.5
2017-11-06T12:26:41.382Z,26.4
2017-11-06T12:27:42.331Z,26.4
2017-11-06T12:28:40.586Z,26.6
2017-11-06T12:29:40.534Z,26.8
2017-11-06T12:30:42.387Z,26.9
2017-11-06T12:31:42.139Z,26.9
2017-11-06T12:32:42.180Z,26.9
2017-11-06T12:33:40.977Z,26.9
2017-11-06T12:34:40.970Z,26.9
2017-11-06T12:35:42.733Z,26.8
2017-11-06T12:36:40.741Z,26.7
2017-11-06T12:37:41.157Z,26.7
2017-11-06T12:38:43.132Z,26.6
2017-11-06T12:39:40.919Z,26.6
2017-11-06T12:40:42.509Z,26.6
2017-11-06T12:41:42.672Z,26.7
2017-11-06T12:42:42.085Z,26.6
2017-11-06T12:43:41.425Z,26.7
2017-11-06T12:44:42.152Z,26.8
2017-11-06T12:45:43.479Z,26.8
2017-11-06T12:46:41.893Z,26.9
2017-11-06T12:47:43.370Z,26.9
2017-11-06T12:48:41.825Z,26.8
2017-11-06T12:49:41.727Z,26.7
2017-11-06T12:50:41.718Z,26.7
2017-11-06T12:51:41.823Z,26.7
2017-11-06T12:52:45.376Z,26.7
2017-11-06T12:53:45.578Z,26.7
2017-11-06T12:54:43.794Z,26.7
2017-11-06T12:55:44.002Z,26.7
2017-11-06T12:56:43.993Z,26.6
2017-11-06T12:57:43.487Z,26.6
2017-11-06T12:58:42.370Z,26.6
2017-11-06T12:59:42.839Z,26.6
2017-11-06T13:00:42.517Z,26.6
2017-11-06T13:01:44.044Z,26.6
2017-11-06T13:02:44.529Z,26.6
2017-11-06T13:03:42.557Z,26.6
2017-11-06T13:04:42.533Z,26.6
2017-11-06T13:05:42.862Z,26.6
2017-11-06T13:06:42.855Z,26.6
2017-11-06T13:07:44.140Z,26.7
2017-11-06T13:08:42.479Z,26.6
2017-11-06T13:09:42.834Z,26.6
2017-11-06T13:10:42.626Z,26.6
2017-11-06T13:11:44.616Z,26.6
2017-11-06T13:12:45.427Z,26.5
2017-11-06T13:13:43.889Z,26.5
2017-11-06T13:14:44.341Z,26.5
2017-11-06T13:15:44.425Z,26.4
2017-11-06T13:16:45.152Z,26.4
2017-11-06T13:17:45.544Z,26.4
2017-11-06T13:18:44.779Z,26.3
2017-11-06T13:19:45.086Z,26.3
2017-11-06T13:20:43.468Z,26.2
2017-11-06T13:21:45.399Z,26.1
2017-11-06T13:22:44.726Z,26
2017-11-06T13:23:45.353Z,26
2017-11-06T13:24:45.536Z,25.9
2017-11-06T13:25:48.862Z,25.9
2017-11-06T13:26:49.268Z,25.9